Time;durP1;ratioP1;P1;durP2;ratioP2;P2;SDS_P1;SDS_P2;PMS_P1;PMS_P2;Temp;Humidity;BMP_temperature;BMP_pressure;BME280_temperature;BME280_humidity;BME280_pressure;Samples;Min_cycle;Max_cycle;Signal;HPM_P1;HPM_P2
2021/12/18 00:00:13;;;;;;;6.20;4.90;;;;;;;;;;4452977;28;20066;-63
2021/12/18 00:02:27;;;;;;;5.55;4.30;;;;;;;;;;4484909;28;20363;-64
2021/12/18 00:04:37;;;;;;;6.37;4.70;;;;;;;;;;4470026;28;20996;-64
2021/12/18 00:06:48;;;;;;;6.18;4.82;;;;;;;;;;4455689;28;20057;-63
2021/12/18 00:08:59;;;;;;;7.60;4.50;;;;;;;;;;4451585;28;20071;-63
2021/12/18 00:11:11;;;;;;;6.28;4.32;;;;;;;;;;4452052;28;20574;-64
2021/12/18 00:13:22;;;;;;;;;;;;;;;;;;4485946;28;20845;-63
2021/12/18 00:15:32;;;;;;;5.80;4.33;;;;;;;;;;4470701;28;20061;-63
2021/12/18 00:17:43;;;;;;;6.20;4.57;;;;;;;;;;4485343;28;20280;-64
2021/12/18 00:19:53;;;;;;;6.15;4.35;;;;;;;;;;4485134;28;20562;-64
2021/12/18 00:22:05;;;;;;;6.13;4.53;;;;;;;;;;4470266;28;20042;-63
2021/12/18 00:24:15;;;;;;;;;;;;;;;;;;4452460;28;20086;-63
2021/12/18 00:26:26;;;;;;;5.78;4.38;;;;;;;;;;4469596;28;19928;-64
2021/12/18 00:28:36;;;;;;;6.63;4.70;;;;;;;;;;4452202;28;20098;-63
2021/12/18 00:30:47;;;;;;;6.43;4.47;;;;;;;;;;4469638;28;20043;-63
2021/12/18 00:32:58;;;;;;;6.35;4.78;;;;;;;;;;4451261;28;20048;-63
2021/12/18 00:35:08;;;;;;;5.80;4.60;;;;;;;;;;4484143;28;20557;-63
2021/12/18 00:37:18;;;;;;;5.60;4.27;;;;;;;;;;4470236;28;20038;-63
2021/12/18 00:39:32;;;;;;;7.20;4.90;;;;;;;;;;4469690;28;20035;-63
2021/12/18 00:44:02;;;;;;;6.88;5.00;;;;;;;;;;4469945;28;20222;-63
2021/12/18 00:46:12;;;;;;;6.47;4.88;;;;;;;;;;4469539;28;20034;-63
2021/12/18 00:48:23;;;;;;;6.80;5.20;;;;;;;;;;4451079;28;28703;-63
2021/12/18 00:50:33;;;;;;;7.30;5.07;;;;;;;;;;4469299;28;20063;-64
2021/12/18 00:52:44;;;;;;;7.43;4.93;;;;;;;;;;4469195;28;34350;-63
2021/12/18 00:54:54;;;;;;;6.57;5.17;;;;;;;;;;4469763;28;20038;-64
2021/12/18 00:57:05;;;;;;;7.70;5.33;;;;;;;;;;4469257;28;20114;-63
2021/12/18 00:59:16;;;;;;;6.73;4.80;;;;;;;;;;4469230;28;20042;-63
2021/12/18 01:01:30;;;;;;;6.73;4.80;;;;;;;;;;4468287;28;20038;-64
2021/12/18 01:03:42;;;;;;;7.70;5.22;;;;;;;;;;4469239;28;20259;-64
2021/12/18 01:05:53;;;;;;;6.70;5.00;;;;;;;;;;4452832;28;21197;-64
2021/12/18 01:08:03;;;;;;;6.37;5.10;;;;;;;;;;4469046;28;25394;-64
2021/12/18 01:12:43;;;;;;;7.47;5.57;;;;;;;;;;4469264;28;20038;-63
2021/12/18 01:15:08;;;;;;;7.35;5.47;;;;;;;;;;4469902;28;20041;-63
2021/12/18 01:24:15;;;;;;;7.70;5.60;;;;;;;;;;4484025;28;20458;-63
2021/12/18 01:26:25;;;;;;;6.83;5.13;;;;;;;;;;4468923;28;22007;-63
2021/12/18 01:28:36;;;;;;;6.60;5.40;;;;;;;;;;4469679;28;20113;-63
2021/12/18 01:30:46;;;;;;;7.13;5.10;;;;;;;;;;4484208;28;20052;-63
2021/12/18 01:32:57;;;;;;;7.23;5.50;;;;;;;;;;4468218;28;30777;-63
2021/12/18 01:35:08;;;;;;;7.00;5.33;;;;;;;;;;4469523;28;20039;-63
2021/12/18 01:37:20;;;;;;;7.47;5.60;;;;;;;;;;4469410;28;20231;-63
2021/12/18 01:39:31;;;;;;;7.82;5.60;;;;;;;;;;4468806;28;20035;-63
2021/12/18 01:42:29;;;;;;;8.13;5.80;;;;;;;;;;4483948;28;20621;-63
2021/12/18 01:46:39;;;;;;;7.68;5.43;;;;;;;;;;4468975;28;20038;-64
2021/12/18 01:51:25;;;;;;;9.00;6.15;;;;;;;;;;4469306;28;20026;-64
2021/12/18 01:53:35;;;;;;;8.60;5.85;;;;;;;;;;4469593;28;20589;-64
2021/12/18 01:55:49;;;;;;;8.97;5.67;;;;;;;;;;4484474;28;20194;-64
2021/12/18 01:57:59;;;;;;;7.88;5.55;;;;;;;;;;4483796;28;20530;-64
2021/12/18 02:00:24;;;;;;;8.83;6.07;;;;;;;;;;4468793;28;20039;-63
2021/12/18 02:02:35;;;;;;;7.43;5.55;;;;;;;;;;4451284;28;20126;-64
2021/12/18 02:04:45;;;;;;;8.73;5.73;;;;;;;;;;4470024;28;22086;-64
2021/12/18 02:06:58;;;;;;;8.83;6.00;;;;;;;;;;4468577;28;20129;-64
2021/12/18 02:09:09;;;;;;;8.10;5.88;;;;;;;;;;4484106;28;20037;-64
2021/12/18 02:13:48;;;;;;;9.05;6.40;;;;;;;;;;4435247;28;20043;-64
2021/12/18 02:20:57;;;;;;;7.97;5.63;;;;;;;;;;4482833;28;20043;-64
2021/12/18 02:23:08;;;;;;;8.35;6.05;;;;;;;;;;4467073;28;20031;-64
2021/12/18 02:25:20;;;;;;;8.30;5.63;;;;;;;;;;4468337;28;20094;-64
2021/12/18 02:27:30;;;;;;;8.25;5.85;;;;;;;;;;4469354;28;20546;-63
2021/12/18 02:29:42;;;;;;;7.73;5.73;;;;;;;;;;4468367;28;20402;-64
2021/12/18 02:31:52;;;;;;;8.50;5.78;;;;;;;;;;4469427;28;20035;-63
2021/12/18 02:34:03;;;;;;;7.87;5.90;;;;;;;;;;4471479;28;20035;-63
2021/12/18 02:36:22;;;;;;;8.55;6.75;;;;;;;;;;4471806;28;20087;-63
2021/12/18 02:41:13;;;;;;;9.27;6.18;;;;;;;;;;4470607;28;20082;-63
2021/12/18 02:43:33;;;;;;;8.25;5.78;;;;;;;;;;4471712;28;20034;-63
2021/12/18 02:45:43;;;;;;;8.15;5.57;;;;;;;;;;4470025;28;20139;-63
2021/12/18 02:47:54;;;;;;;7.67;5.43;;;;;;;;;;4471149;28;20093;-64
2021/12/18 02:50:05;;;;;;;7.20;5.40;;;;;;;;;;4471185;28;20035;-64
2021/12/18 02:52:17;;;;;;;8.15;5.78;;;;;;;;;;4471434;28;20030;-63
2021/12/18 02:54:28;;;;;;;8.48;5.90;;;;;;;;;;4471088;28;20042;-64
2021/12/18 02:56:38;;;;;;;9.10;6.00;;;;;;;;;;4471288;28;20034;-63
2021/12/18 02:58:52;;;;;;;7.67;5.97;;;;;;;;;;4471381;28;20135;-63
2021/12/18 03:01:04;;;;;;;8.93;5.78;;;;;;;;;;4470816;28;20043;-64
2021/12/18 03:03:15;;;;;;;8.88;6.30;;;;;;;;;;4471585;28;20066;-64
2021/12/18 03:05:33;;;;;;;8.70;5.90;;;;;;;;;;4452548;28;20116;-64
2021/12/18 03:07:45;;;;;;;8.25;5.45;;;;;;;;;;4454942;28;20592;-64
2021/12/18 03:25:01;;;;;;;9.32;6.30;;;;;;;;;;4456283;28;21409;-64
2021/12/18 03:27:12;;;;;;;10.57;7.10;;;;;;;;;;4471160;28;20114;-64
2021/12/18 03:29:22;;;;;;;8.60;6.10;;;;;;;;;;4486118;28;20062;-64
2021/12/18 03:31:33;;;;;;;9.40;6.57;;;;;;;;;;4453149;28;20042;-63
2021/12/18 03:33:43;;;;;;;10.47;7.30;;;;;;;;;;4471010;28;20050;-64
2021/12/18 03:35:54;;;;;;;10.53;7.10;;;;;;;;;;4485596;28;25080;-64
2021/12/18 03:38:05;;;;;;;10.50;7.50;;;;;;;;;;4452920;28;20046;-64
2021/12/18 03:40:18;;;;;;;10.67;7.80;;;;;;;;;;4454319;28;20070;-64
2021/12/18 03:42:31;;;;;;;11.18;7.65;;;;;;;;;;4453448;28;20039;-64
2021/12/18 03:44:42;;;;;;;11.40;7.70;;;;;;;;;;4470971;28;20043;-64
2021/12/18 03:46:52;;;;;;;10.00;7.15;;;;;;;;;;4436651;28;20183;-64
2021/12/18 03:49:03;;;;;;;10.20;7.10;;;;;;;;;;4452461;28;20134;-64
2021/12/18 03:51:13;;;;;;;10.20;6.57;;;;;;;;;;4485984;28;20039;-64
2021/12/18 03:53:24;;;;;;;10.67;7.40;;;;;;;;;;4452962;28;20043;-64
2021/12/18 03:55:34;;;;;;;10.93;7.83;;;;;;;;;;4470163;28;39376;-64
2021/12/18 03:57:45;;;;;;;10.73;7.43;;;;;;;;;;4471150;28;20046;-64
2021/12/18 03:59:55;;;;;;;11.37;7.60;;;;;;;;;;4470390;28;20608;-64
2021/12/18 04:02:06;;;;;;;11.17;7.07;;;;;;;;;;4470634;28;20130;-64
2021/12/18 04:04:17;;;;;;;10.97;7.47;;;;;;;;;;4469786;28;20391;-64
2021/12/18 04:06:27;;;;;;;10.88;7.85;;;;;;;;;;4470002;28;20034;-64
2021/12/18 04:08:38;;;;;;;11.07;7.57;;;;;;;;;;4470237;28;20046;-64
2021/12/18 04:10:48;;;;;;;12.27;7.83;;;;;;;;;;4469858;28;20066;-63
2021/12/18 04:12:59;;;;;;;11.33;7.63;;;;;;;;;;4470428;28;22468;-64
2021/12/18 04:15:10;;;;;;;10.48;7.50;;;;;;;;;;4470463;28;20050;-64
2021/12/18 04:17:20;;;;;;;12.50;8.03;;;;;;;;;;4470664;28;20038;-64
2021/12/18 04:19:31;;;;;;;12.37;7.80;;;;;;;;;;4469578;28;24117;-64
2021/12/18 04:21:42;;;;;;;10.48;7.10;;;;;;;;;;4451791;28;20150;-64
2021/12/18 04:23:52;;;;;;;10.70;7.70;;;;;;;;;;4470123;28;20035;-64
2021/12/18 04:26:03;;;;;;;11.47;7.77;;;;;;;;;;4484897;28;20038;-64
2021/12/18 04:28:13;;;;;;;10.37;6.87;;;;;;;;;;4469835;28;20074;-64
2021/12/18 04:30:24;;;;;;;11.83;7.50;;;;;;;;;;4452003;28;22204;-64
2021/12/18 04:32:34;;;;;;;11.00;7.33;;;;;;;;;;4469726;28;20038;-64
2021/12/18 04:34:45;;;;;;;10.20;7.00;;;;;;;;;;4470023;28;20597;-64
2021/12/18 04:36:55;;;;;;;10.47;6.73;;;;;;;;;;4469959;28;20089;-64
2021/12/18 04:39:06;;;;;;;9.93;6.40;;;;;;;;;;4469179;28;29592;-64
2021/12/18 04:41:22;;;;;;;10.23;6.57;;;;;;;;;;4470013;28;20031;-64
2021/12/18 04:43:33;;;;;;;10.25;7.03;;;;;;;;;;4452697;28;20047;-64
2021/12/18 04:45:43;;;;;;;10.83;7.30;;;;;;;;;;4470720;28;20395;-64
2021/12/18 04:47:54;;;;;;;10.03;6.97;;;;;;;;;;4469261;28;32382;-64
2021/12/18 04:50:05;;;;;;;10.32;7.03;;;;;;;;;;4469476;28;20039;-64
2021/12/18 04:52:16;;;;;;;9.48;6.20;;;;;;;;;;4485076;28;20105;-64
2021/12/18 04:54:26;;;;;;;10.97;7.33;;;;;;;;;;4468840;28;20119;-64
2021/12/18 04:56:36;;;;;;;9.53;6.70;;;;;;;;;;4451615;28;20445;-64
2021/12/18 04:58:47;;;;;;;9.33;6.47;;;;;;;;;;4469536;28;21639;-64
2021/12/18 05:00:57;;;;;;;11.43;7.40;;;;;;;;;;4470081;28;20043;-64
2021/12/18 05:03:11;;;;;;;10.23;6.93;;;;;;;;;;4470629;28;20150;-64
2021/12/18 05:05:22;;;;;;;11.05;7.20;;;;;;;;;;4452566;28;20039;-64
2021/12/18 05:07:32;;;;;;;9.80;6.90;;;;;;;;;;4469236;28;20399;-64
2021/12/18 05:09:43;;;;;;;10.43;6.87;;;;;;;;;;4469610;28;20031;-63
2021/12/18 05:11:55;;;;;;;10.93;7.77;;;;;;;;;;4484833;28;20534;-64
2021/12/18 05:14:06;;;;;;;11.07;8.10;;;;;;;;;;4469760;28;20038;-64
2021/12/18 05:16:16;;;;;;;12.03;9.33;;;;;;;;;;4469271;28;20034;-64
2021/12/18 05:18:27;;;;;;;13.90;10.90;;;;;;;;;;4469872;28;20369;-64
2021/12/18 05:20:37;;;;;;;14.80;10.53;;;;;;;;;;4452182;28;20030;-64
2021/12/18 05:22:48;;;;;;;12.77;9.13;;;;;;;;;;4451990;28;20063;-63
2021/12/18 05:24:58;;;;;;;12.17;9.60;;;;;;;;;;4470556;28;20042;-64
2021/12/18 05:27:09;;;;;;;13.10;9.10;;;;;;;;;;4469822;28;20125;-64
2021/12/18 05:29:19;;;;;;;13.50;10.23;;;;;;;;;;4468591;28;30441;-64
2021/12/18 05:31:29;;;;;;;12.93;9.43;;;;;;;;;;4469621;28;20046;-64
2021/12/18 05:33:40;;;;;;;14.00;10.43;;;;;;;;;;4468954;28;20045;-64
2021/12/18 05:35:50;;;;;;;13.30;9.80;;;;;;;;;;4484001;28;20030;-64
2021/12/18 05:38:07;;;;;;;13.13;9.27;;;;;;;;;;4469269;28;20074;-64
2021/12/18 05:40:22;;;;;;;15.25;11.32;;;;;;;;;;4469199;28;20031;-64
2021/12/18 05:42:33;;;;;;;14.15;10.70;;;;;;;;;;4451102;28;20035;-64
2021/12/18 05:44:44;;;;;;;11.63;8.03;;;;;;;;;;4469375;28;20041;-64
2021/12/18 05:46:55;;;;;;;13.18;9.93;;;;;;;;;;4484119;28;20034;-63
2021/12/18 05:49:05;;;;;;;12.43;9.25;;;;;;;;;;4469405;28;20038;-64
2021/12/18 05:51:16;;;;;;;12.40;9.37;;;;;;;;;;4469724;28;20023;-63
2021/12/18 05:53:26;;;;;;;12.00;8.13;;;;;;;;;;4469196;28;20506;-64
2021/12/18 05:55:37;;;;;;;10.53;7.50;;;;;;;;;;4469217;28;22529;-64
2021/12/18 05:57:47;;;;;;;11.63;8.10;;;;;;;;;;4451824;28;20047;-63
2021/12/18 05:59:57;;;;;;;11.43;7.73;;;;;;;;;;4468797;28;20070;-63
2021/12/18 06:02:08;;;;;;;10.27;7.00;;;;;;;;;;4468278;28;20150;-63
2021/12/18 06:04:18;;;;;;;10.33;7.27;;;;;;;;;;4469154;28;20580;-63
2021/12/18 06:06:30;;;;;;;11.90;8.10;;;;;;;;;;4467647;28;20118;-64
2021/12/18 06:08:42;;;;;;;10.95;7.75;;;;;;;;;;4450010;28;20050;-64
2021/12/18 06:10:53;;;;;;;10.77;8.00;;;;;;;;;;4468482;28;20109;-64
2021/12/18 06:13:03;;;;;;;13.70;8.60;;;;;;;;;;4469750;28;20090;-64
2021/12/18 06:15:14;;;;;;;11.33;8.23;;;;;;;;;;4468933;28;20058;-63
2021/12/18 06:17:24;;;;;;;11.00;8.10;;;;;;;;;;4468752;28;20035;-64
2021/12/18 06:19:35;;;;;;;10.63;7.40;;;;;;;;;;4450629;28;20039;-64
2021/12/18 06:21:45;;;;;;;11.00;7.67;;;;;;;;;;4468263;28;20047;-64
2021/12/18 06:23:56;;;;;;;10.57;7.20;;;;;;;;;;4468648;28;20035;-64
2021/12/18 06:26:06;;;;;;;11.60;7.23;;;;;;;;;;4469492;28;20039;-64
2021/12/18 06:28:17;;;;;;;10.00;7.17;;;;;;;;;;4468796;28;20038;-64
2021/12/18 06:30:27;;;;;;;9.50;6.53;;;;;;;;;;4467830;28;20666;-64
2021/12/18 06:32:39;;;;;;;9.80;6.73;;;;;;;;;;4468582;28;20042;-63
2021/12/18 06:34:49;;;;;;;9.63;6.50;;;;;;;;;;4483445;28;20043;-64
2021/12/18 06:37:00;;;;;;;10.53;7.37;;;;;;;;;;4468740;28;20113;-64
2021/12/18 06:39:10;;;;;;;10.13;6.77;;;;;;;;;;4483542;28;20495;-64
2021/12/18 06:41:20;;;;;;;9.77;6.97;;;;;;;;;;4468338;28;20035;-63
2021/12/18 06:43:31;;;;;;;10.23;7.37;;;;;;;;;;4469444;28;20114;-65
2021/12/18 06:45:41;;;;;;;10.93;7.20;;;;;;;;;;4468763;28;20219;-64
2021/12/18 06:47:53;;;;;;;10.67;7.57;;;;;;;;;;4451160;28;20134;-65
2021/12/18 06:50:04;;;;;;;;;;;;;;;;;;4450648;28;20028;-64
2021/12/18 06:52:15;;;;;;;10.23;6.78;;;;;;;;;;4468515;28;19917;-64
2021/12/18 06:54:25;;;;;;;10.27;6.87;;;;;;;;;;4449365;28;20500;-64
2021/12/18 06:56:36;;;;;;;9.63;6.23;;;;;;;;;;4468436;28;20042;-64
2021/12/18 06:58:46;;;;;;;9.93;6.63;;;;;;;;;;4482920;28;20034;-64
2021/12/18 07:00:57;;;;;;;9.97;6.93;;;;;;;;;;4467788;28;20039;-63
2021/12/18 07:03:07;;;;;;;9.40;6.53;;;;;;;;;;4451086;28;20035;-63
2021/12/18 07:05:18;;;;;;;9.70;6.67;;;;;;;;;;4468341;28;20039;-63
2021/12/18 07:07:28;;;;;;;11.20;7.10;;;;;;;;;;4468219;28;20043;-64
2021/12/18 07:09:38;;;;;;;9.53;6.67;;;;;;;;;;4468146;28;20077;-64
2021/12/18 07:11:49;;;;;;;9.83;6.97;;;;;;;;;;4468511;28;20038;-63
2021/12/18 07:13:59;;;;;;;9.03;6.53;;;;;;;;;;4469131;28;20035;-64
2021/12/18 07:16:10;;;;;;;9.87;6.57;;;;;;;;;;4467878;28;20117;-63
2021/12/18 07:18:20;;;;;;;10.33;6.53;;;;;;;;;;4468515;28;20055;-63
2021/12/18 07:20:32;;;;;;;10.30;6.83;;;;;;;;;;4470860;28;20035;-63
2021/12/18 07:22:42;;;;;;;;;;;;;;;;;;4453413;28;20205;-64
2021/12/18 07:24:52;;;;;;;10.18;6.78;;;;;;;;;;4471207;28;20046;-64
2021/12/18 07:27:03;;;;;;;9.03;6.27;;;;;;;;;;4469727;28;25065;-64
2021/12/18 07:29:14;;;;;;;9.93;6.87;;;;;;;;;;4470913;28;20038;-64
2021/12/18 07:31:24;;;;;;;9.57;6.83;;;;;;;;;;4437180;28;20042;-64
2021/12/18 07:33:37;;;;;;;9.23;6.17;;;;;;;;;;4452434;28;20427;-64
2021/12/18 07:35:49;;;;;;;9.35;6.38;;;;;;;;;;4470887;28;20043;-64
2021/12/18 07:38:00;;;;;;;9.60;6.43;;;;;;;;;;4485995;28;20034;-64
2021/12/18 07:40:11;;;;;;;8.53;6.13;;;;;;;;;;4470646;28;21153;-64
2021/12/18 07:42:22;;;;;;;9.02;6.38;;;;;;;;;;4470262;28;20034;-63
2021/12/18 07:44:32;;;;;;;9.37;6.40;;;;;;;;;;4471054;28;20031;-63
2021/12/18 07:46:43;;;;;;;9.23;6.10;;;;;;;;;;4470396;28;20098;-64
2021/12/18 07:48:53;;;;;;;9.13;6.20;;;;;;;;;;4469976;28;20726;-64
2021/12/18 07:51:04;;;;;;;8.30;5.43;;;;;;;;;;4470388;28;20511;-63
2021/12/18 07:53:16;;;;;;;7.85;5.25;;;;;;;;;;4485773;28;20035;-64
2021/12/18 07:55:28;;;;;;;7.10;4.80;;;;;;;;;;4469661;28;20038;-63
2021/12/18 07:57:38;;;;;;;6.50;4.40;;;;;;;;;;4452207;28;20031;-63
2021/12/18 07:59:49;;;;;;;6.13;4.10;;;;;;;;;;4469992;28;20049;-63
2021/12/18 08:02:00;;;;;;;6.20;3.83;;;;;;;;;;4451509;28;20039;-64
2021/12/18 08:04:11;;;;;;;5.63;3.80;;;;;;;;;;4469789;28;20264;-64
2021/12/18 08:06:21;;;;;;;5.90;4.10;;;;;;;;;;4469544;28;23711;-64
2021/12/18 08:08:32;;;;;;;4.80;3.50;;;;;;;;;;4469625;28;20049;-63
2021/12/18 08:10:43;;;;;;;6.05;4.00;;;;;;;;;;4469792;28;20037;-64
2021/12/18 08:12:53;;;;;;;6.10;4.13;;;;;;;;;;4470167;28;20834;-64
2021/12/18 08:15:04;;;;;;;5.80;3.87;;;;;;;;;;4471177;28;20090;-63
2021/12/18 08:17:14;;;;;;;3.97;3.25;;;;;;;;;;4470213;28;20066;-63
2021/12/18 08:19:25;;;;;;;6.07;4.00;;;;;;;;;;4469332;28;20105;-63
2021/12/18 08:21:35;;;;;;;4.60;3.40;;;;;;;;;;4467613;28;20034;-64
2021/12/18 08:23:46;;;;;;;5.47;3.87;;;;;;;;;;4469750;28;20376;-63
2021/12/18 08:25:56;;;;;;;4.73;3.30;;;;;;;;;;4469749;28;20039;-64
2021/12/18 08:28:07;;;;;;;4.77;3.33;;;;;;;;;;4469528;28;20038;-63
2021/12/18 08:30:17;;;;;;;4.97;3.30;;;;;;;;;;4467965;28;20047;-63
2021/12/18 08:32:28;;;;;;;3.50;2.70;;;;;;;;;;4468651;28;22543;-64
2021/12/18 08:34:38;;;;;;;3.60;2.50;;;;;;;;;;4469558;28;20550;-63
2021/12/18 08:36:49;;;;;;;3.03;2.23;;;;;;;;;;4469433;28;20073;-63
2021/12/18 08:38:59;;;;;;;2.90;2.37;;;;;;;;;;4468864;28;20470;-63
2021/12/18 08:41:11;;;;;;;2.97;1.93;;;;;;;;;;4467754;28;20334;-63
2021/12/18 08:43:21;;;;;;;;;;;;;;;;;;4469104;28;20594;-63
2021/12/18 08:45:31;;;;;;;2.27;1.60;;;;;;;;;;4468630;28;19917;-63
2021/12/18 08:47:43;;;;;;;3.13;1.97;;;;;;;;;;4468476;28;20057;-63
2021/12/18 08:49:53;;;;;;;1.65;1.38;;;;;;;;;;4468688;28;20137;-63
2021/12/18 08:52:04;;;;;;;2.17;1.40;;;;;;;;;;4469016;28;20163;-63
2021/12/18 08:54:14;;;;;;;1.97;1.50;;;;;;;;;;4466633;28;20468;-63
2021/12/18 08:56:25;;;;;;;1.30;1.00;;;;;;;;;;4484147;28;20062;-63
2021/12/18 08:58:35;;;;;;;1.17;1.00;;;;;;;;;;4468316;28;20027;-63
2021/12/18 09:00:45;;;;;;;1.43;0.93;;;;;;;;;;4468650;28;20625;-63
2021/12/18 09:02:57;;;;;;;0.70;0.70;;;;;;;;;;4468612;28;20033;-64
2021/12/18 09:05:09;;;;;;;0.90;0.80;;;;;;;;;;4468803;28;20590;-64
2021/12/18 09:07:19;;;;;;;2.08;1.05;;;;;;;;;;4482512;28;20038;-64
2021/12/18 09:09:30;;;;;;;1.50;1.20;;;;;;;;;;4467715;28;20031;-64
2021/12/18 09:11:40;;;;;;;1.60;1.07;;;;;;;;;;4449726;28;20623;-64
2021/12/18 09:13:51;;;;;;;1.57;1.00;;;;;;;;;;4468075;28;20038;-64
2021/12/18 09:16:01;;;;;;;1.53;0.93;;;;;;;;;;4468331;28;20058;-64
2021/12/18 09:18:11;;;;;;;1.37;0.90;;;;;;;;;;4468121;28;20035;-64
2021/12/18 09:20:22;;;;;;;1.87;1.30;;;;;;;;;;4468004;28;20484;-64
2021/12/18 09:22:33;;;;;;;3.03;1.50;;;;;;;;;;4482671;28;20034;-64
2021/12/18 09:24:43;;;;;;;3.83;3.33;;;;;;;;;;4469317;28;20097;-65
2021/12/18 09:26:54;;;;;;;1.93;1.20;;;;;;;;;;4483591;28;20165;-62
2021/12/18 09:29:04;;;;;;;2.37;1.40;;;;;;;;;;4450997;28;20045;-62
2021/12/18 09:31:15;;;;;;;1.77;1.10;;;;;;;;;;4466787;28;20547;-64
2021/12/18 09:33:25;;;;;;;2.17;1.23;;;;;;;;;;4483873;28;20042;-63
2021/12/18 09:35:35;;;;;;;2.00;1.27;;;;;;;;;;4468865;28;20082;-63
2021/12/18 09:37:47;;;;;;;1.37;1.00;;;;;;;;;;4450899;28;20039;-64
2021/12/18 09:39:57;;;;;;;1.85;1.13;;;;;;;;;;4451304;28;20039;-64
2021/12/18 09:42:08;;;;;;;1.27;0.90;;;;;;;;;;4467810;28;20031;-64
2021/12/18 09:44:29;;;;;;;1.30;0.97;;;;;;;;;;4468212;28;20678;-64
2021/12/18 09:46:40;;;;;;;0.80;0.80;;;;;;;;;;4483474;28;20680;-64
2021/12/18 09:48:50;;;;;;;0.90;0.77;;;;;;;;;;4468342;28;20131;-63
2021/12/18 09:51:08;;;;;;;1.00;0.90;;;;;;;;;;4482439;28;20140;-64
2021/12/18 09:53:18;;;;;;;0.80;0.70;;;;;;;;;;4468114;28;20031;-64
2021/12/18 09:55:29;;;;;;;1.33;0.87;;;;;;;;;;4468153;28;20035;-64
2021/12/18 09:57:40;;;;;;;1.60;0.83;;;;;;;;;;4467940;28;20439;-64
2021/12/18 09:59:50;;;;;;;1.23;0.82;;;;;;;;;;4467698;28;20133;-64
2021/12/18 10:02:01;;;;;;;1.40;0.90;;;;;;;;;;4466651;28;20125;-63
2021/12/18 10:04:30;;;;;;;2.23;1.17;;;;;;;;;;4468328;28;20046;-63
2021/12/18 10:06:44;;;;;;;2.40;1.20;;;;;;;;;;4452210;28;20568;-66
2021/12/18 10:08:55;;;;;;;2.78;1.30;;;;;;;;;;4482922;28;20038;-64
2021/12/18 10:11:08;;;;;;;2.77;1.20;;;;;;;;;;4468030;28;20043;-63
2021/12/18 10:13:18;;;;;;;2.20;1.00;;;;;;;;;;4468606;28;20634;-67
2021/12/18 10:15:29;;;;;;;1.73;0.97;;;;;;;;;;4468269;28;20109;-68
2021/12/18 10:17:42;;;;;;;3.40;1.30;;;;;;;;;;4468124;28;20035;-67
2021/12/18 10:19:55;;;;;;;2.30;1.30;;;;;;;;;;4466960;28;20119;-62
2021/12/18 10:22:07;;;;;;;1.90;1.02;;;;;;;;;;4466252;28;20583;-65
2021/12/18 10:24:18;;;;;;;1.88;1.10;;;;;;;;;;4467876;28;20042;-64
2021/12/18 10:26:38;;;;;;;1.80;1.27;;;;;;;;;;4482581;28;20038;-65
2021/12/18 10:28:48;;;;;;;1.98;1.20;;;;;;;;;;4482218;28;20537;-66
2021/12/18 10:30:58;;;;;;;1.20;0.97;;;;;;;;;;4449568;28;20719;-66
2021/12/18 10:33:11;;;;;;;2.10;1.10;;;;;;;;;;4466964;28;20042;-66
2021/12/18 10:35:34;;;;;;;1.65;1.15;;;;;;;;;;4468095;28;20218;-65
2021/12/18 10:37:45;;;;;;;1.80;1.00;;;;;;;;;;4475412;28;20039;-67
2021/12/18 10:40:06;;;;;;;2.20;0.93;;;;;;;;;;4467637;28;20046;-64
2021/12/18 10:42:53;;;;;;;1.48;0.85;;;;;;;;;;4467960;28;21418;-64
2021/12/18 10:45:21;;;;;;;1.33;0.88;;;;;;;;;;4446727;28;20036;-61
2021/12/18 10:48:14;;;;;;;1.00;0.80;;;;;;;;;;4463418;28;20061;-64
2021/12/18 10:50:25;;;;;;;1.40;0.80;;;;;;;;;;4412697;28;20040;-61
2021/12/18 10:52:38;;;;;;;;;;;;;;;;;;4451786;28;20050;-61
2021/12/18 10:55:02;;;;;;;0.80;0.70;;;;;;;;;;4470962;28;21277;-61
2021/12/18 10:57:20;;;;;;;1.25;0.90;;;;;;;;;;4471023;28;20038;-61
2021/12/18 10:59:36;;;;;;;1.80;0.80;;;;;;;;;;4470524;28;20042;-61
2021/12/18 11:01:55;;;;;;;1.13;0.70;;;;;;;;;;4470780;28;20122;-61
2021/12/18 11:04:05;;;;;;;1.17;0.80;;;;;;;;;;4471558;28;21282;-60
2021/12/18 11:06:24;;;;;;;1.57;0.93;;;;;;;;;;4471871;28;20034;-60
2021/12/18 11:08:48;;;;;;;0.95;0.70;;;;;;;;;;4470590;28;20050;-61
2021/12/18 11:13:38;;;;;;;1.77;0.93;;;;;;;;;;4483202;28;20043;-61
2021/12/18 11:15:49;;;;;;;0.85;0.75;;;;;;;;;;4470323;28;20027;-61
2021/12/18 11:18:00;;;;;;;1.10;0.77;;;;;;;;;;4484940;28;20542;-61
2021/12/18 11:20:11;;;;;;;1.20;0.90;;;;;;;;;;4484949;28;20113;-60
2021/12/18 11:22:21;;;;;;;1.60;0.90;;;;;;;;;;4451760;28;20050;-61
2021/12/18 11:24:43;;;;;;;0.90;0.70;;;;;;;;;;4485088;28;20034;-61
2021/12/18 11:27:26;;;;;;;1.40;1.00;;;;;;;;;;4484748;28;20677;-59
2021/12/18 11:29:58;;;;;;;1.27;1.00;;;;;;;;;;4456128;28;20039;-60
2021/12/18 11:32:18;;;;;;;1.77;1.10;;;;;;;;;;4452407;28;20555;-59
2021/12/18 11:34:28;;;;;;;2.95;1.65;;;;;;;;;;4469779;28;20110;-60
2021/12/18 11:36:41;;;;;;;1.70;1.20;;;;;;;;;;4469755;28;20589;-60
2021/12/18 11:38:52;;;;;;;2.28;1.40;;;;;;;;;;4468907;28;20094;-59
2021/12/18 11:41:03;;;;;;;;;;;;;;;;;;4454200;28;20035;-59
2021/12/18 11:43:41;;;;;;;1.13;0.80;;;;;;;;;;4452226;28;19919;-60
2021/12/18 11:45:51;;;;;;;1.45;1.00;;;;;;;;;;4485219;28;20112;-59
2021/12/18 11:48:04;;;;;;;1.00;0.90;;;;;;;;;;4470190;28;20082;-59
2021/12/18 11:50:26;;;;;;;1.08;0.90;;;;;;;;;;4469523;28;20138;-59
2021/12/18 11:52:59;;;;;;;1.45;0.95;;;;;;;;;;4470245;28;20066;-59
2021/12/18 11:55:09;;;;;;;1.30;0.82;;;;;;;;;;4469797;28;20100;-60
2021/12/18 11:57:41;;;;;;;2.07;1.10;;;;;;;;;;4469240;28;20072;-59
2021/12/18 11:59:52;;;;;;;1.80;1.30;;;;;;;;;;4469301;28;20613;-59
2021/12/18 12:02:02;;;;;;;2.20;1.27;;;;;;;;;;4469905;28;20077;-59
2021/12/18 12:04:13;;;;;;;2.30;1.30;;;;;;;;;;4468613;28;20062;-59
2021/12/18 12:06:29;;;;;;;2.50;1.20;;;;;;;;;;4469170;28;20034;-60
2021/12/18 12:08:41;;;;;;;2.88;1.55;;;;;;;;;;4484471;28;20046;-59
2021/12/18 12:11:20;;;;;;;3.38;1.40;;;;;;;;;;4469670;28;20979;-60
2021/12/18 12:13:52;;;;;;;3.17;1.45;;;;;;;;;;4469415;28;20035;-60
2021/12/18 12:16:03;;;;;;;4.18;1.80;;;;;;;;;;4484433;28;20034;-59
2021/12/18 12:18:13;;;;;;;4.10;1.90;;;;;;;;;;4451866;28;20031;-60
2021/12/18 12:20:41;;;;;;;3.87;1.80;;;;;;;;;;4468629;28;27872;-60
2021/12/18 12:23:01;;;;;;;2.55;1.63;;;;;;;;;;4469159;28;20042;-60
2021/12/18 12:25:15;;;;;;;4.15;1.88;;;;;;;;;;4464969;28;20548;-60
2021/12/18 12:27:32;;;;;;;3.92;1.75;;;;;;;;;;4468618;28;20177;-59
2021/12/18 12:29:46;;;;;;;3.67;1.67;;;;;;;;;;4484233;28;20577;-60
2021/12/18 12:32:00;;;;;;;3.42;1.70;;;;;;;;;;4468630;28;20066;-59
2021/12/18 12:34:21;;;;;;;2.95;1.45;;;;;;;;;;4483678;28;20034;-60
2021/12/18 12:36:33;;;;;;;1.98;1.20;;;;;;;;;;4468362;28;20666;-61
2021/12/18 12:39:02;;;;;;;2.35;1.20;;;;;;;;;;4450969;28;20589;-61
2021/12/18 12:41:59;;;;;;;1.80;1.30;;;;;;;;;;4468476;28;20046;-60
2021/12/18 12:44:36;;;;;;;1.95;1.27;;;;;;;;;;4468195;28;20859;-61
2021/12/18 12:46:47;;;;;;;2.33;1.40;;;;;;;;;;4468948;28;20089;-61
2021/12/18 12:49:04;;;;;;;1.97;1.30;;;;;;;;;;4450539;28;20504;-60
2021/12/18 12:51:15;;;;;;;1.83;1.23;;;;;;;;;;4483493;28;20769;-61
2021/12/18 12:53:51;;;;;;;2.63;1.27;;;;;;;;;;4468973;28;20129;-60
2021/12/18 12:56:13;;;;;;;2.08;1.40;;;;;;;;;;4468841;28;20046;-60
2021/12/18 12:58:25;;;;;;;3.17;1.77;;;;;;;;;;4451274;28;20046;-61
2021/12/18 13:00:37;;;;;;;2.17;1.33;;;;;;;;;;4467497;28;20121;-62
2021/12/18 13:02:54;;;;;;;2.80;1.63;;;;;;;;;;4467201;28;20035;-61
2021/12/18 13:05:12;;;;;;;3.25;1.80;;;;;;;;;;4469015;28;20043;-61
2021/12/18 13:07:23;;;;;;;3.78;1.75;;;;;;;;;;4484914;28;20043;-61
2021/12/18 13:09:34;;;;;;;5.00;2.13;;;;;;;;;;4469494;28;20762;-61
2021/12/18 13:12:00;;;;;;;3.08;1.55;;;;;;;;;;4465913;28;20022;-60
2021/12/18 13:14:14;;;;;;;2.88;1.58;;;;;;;;;;4483762;28;20115;-61
2021/12/18 13:16:24;;;;;;;2.70;1.38;;;;;;;;;;4483469;28;20141;-61
2021/12/18 13:18:42;;;;;;;2.77;1.50;;;;;;;;;;4438962;28;20042;-61
2021/12/18 13:21:06;;;;;;;2.35;1.45;;;;;;;;;;4468613;28;20066;-61
2021/12/18 13:23:19;;;;;;;3.80;1.40;;;;;;;;;;4468736;28;20161;-61
2021/12/18 13:25:30;;;;;;;3.33;1.23;;;;;;;;;;4468542;28;20034;-61
2021/12/18 13:27:42;;;;;;;1.93;1.27;;;;;;;;;;4466791;28;20042;-61
2021/12/18 13:30:14;;;;;;;2.85;1.50;;;;;;;;;;4467586;28;20110;-60
2021/12/18 13:32:25;;;;;;;2.90;1.50;;;;;;;;;;4465768;28;20046;-60
2021/12/18 13:34:38;;;;;;;3.20;1.47;;;;;;;;;;4466893;28;20059;-61
2021/12/18 13:37:03;;;;;;;2.53;1.45;;;;;;;;;;4467827;28;20130;-60
2021/12/18 13:39:19;;;;;;;3.38;1.83;;;;;;;;;;4467759;28;20094;-60
2021/12/18 13:41:29;;;;;;;2.67;1.58;;;;;;;;;;4451053;28;20027;-60
2021/12/18 13:43:41;;;;;;;2.87;1.57;;;;;;;;;;4468309;28;24408;-60
2021/12/18 13:45:59;;;;;;;;;;;;;;;;;;4468341;28;20117;-60
2021/12/18 13:48:10;;;;;;;4.38;2.10;;;;;;;;;;4450459;28;19926;-60
2021/12/18 13:50:22;;;;;;;4.35;2.03;;;;;;;;;;4482295;28;20593;-60
2021/12/18 13:52:36;;;;;;;4.80;2.17;;;;;;;;;;4482775;28;20126;-60
2021/12/18 13:54:46;;;;;;;6.05;2.25;;;;;;;;;;4467614;28;20038;-60
2021/12/18 13:56:57;;;;;;;4.73;2.00;;;;;;;;;;4482549;28;20034;-61
2021/12/18 13:59:18;;;;;;;2.10;1.10;;;;;;;;;;4467554;28;20109;-60
2021/12/18 14:01:29;;;;;;;2.47;1.23;;;;;;;;;;4468015;28;20061;-61